| time (UTC) | temp F | wind direction | speed MPH | gust MPH | rain 1hr in | rain 24hr in | rain mn in | humidity % | barometer mb |
| 20260906001518 | 0 | 264 | 0.0 | 1.0 | 0.00 | 0.09 | 0.00 | 1024.3 | |
| 20260906000015 | 0 | 264 | 0.0 | 2.0 | 0.00 | 0.09 | 0.00 | 1024.3 | |
| 20260905234609 | 0 | 264 | 0.0 | 4.0 | 0.00 | 0.09 | 0.00 | 1024.3 | |
| 20260905233006 | 0 | 264 | 0.0 | 3.0 | 0.00 | 0.09 | 0.00 | 1024.2 | |
| 20260905231501 | 0 | 264 | 0.0 | 4.0 | 0.00 | 0.09 | 0.00 | 1024.2 | |
| 20260905230100 | 0 | 264 | 0.0 | 7.0 | 0.00 | 0.09 | 0.00 | 1024.0 | |
| 20260905224552 | 0 | 265 | 0.0 | 2.0 | 0.00 | 0.09 | 0.00 | 1023.8 | |
| 20260905223048 | 0 | 265 | 0.0 | 2.0 | 0.00 | 0.09 | 0.00 | 1023.6 | |
| 20260905221559 | 0 | 265 | 0.0 | 1.0 | 0.00 | 0.09 | 0.00 | 1023.5 | |
| 20260905220041 | 0 | 265 | 0.0 | 0.0 | 0.01 | 0.09 | 0.00 | 1023.4 | |
| 20260905214535 | 0 | 265 | 0.0 | 1.0 | 0.01 | 0.09 | 0.09 | 1023.3 | |
| 20260905213030 | 0 | 265 | 0.0 | 1.0 | 0.01 | 0.09 | 0.09 | 1023.1 | |
| 20260905211525 | 0 | 265 | 0.0 | 0.0 | 0.00 | 0.08 | 0.08 | 1022.9 | |
| 20260905210021 | 0 | 265 | 0.0 | 0.0 | 0.00 | 0.08 | 0.08 | 1022.8 | |
| 20260905204518 | 0 | 265 | 0.0 | 1.0 | 0.00 | 0.08 | 0.08 | 1022.7 | |
| 20260905203013 | 0 | 265 | 0.0 | 0.0 | 0.00 | 0.08 | 0.08 | 1022.6 | |
| 20260905201507 | 0 | 265 | 0.0 | 1.0 | 0.00 | 0.08 | 0.08 | 1022.6 | |
| 20260905200005 | 0 | 265 | 1.0 | 9.0 | 0.00 | 0.08 | 0.08 | 1022.5 | |
| 20260905194600 | 0 | 265 | 1.0 | 4.0 | 0.00 | 0.08 | 0.08 | 1022.3 | |
| 20260905193054 | 0 | 266 | 1.0 | 11.0 | 0.00 | 0.08 | 0.08 | 1022.2 | |
| 20260905191550 | 0 | 276 | 0.0 | 10.0 | 0.00 | 0.08 | 0.08 | 1022.0 | |
| 20260905190052 | 0 | 284 | 3.0 | 9.0 | 0.00 | 0.08 | 0.08 | 1022.0 | |
| 20260905184645 | 0 | 261 | 3.0 | 10.0 | 0.00 | 0.08 | 0.08 | 1021.7 | |
| 20260905183045 | 0 | 259 | 0.0 | 9.0 | 0.00 | 0.08 | 0.08 | 1021.6 | |
| 20260905181544 | 0 | 257 | 4.0 | 15.0 | 0.00 | 0.08 | 0.08 | 1021.4 | |
| 20260905180100 | 0 | 261 | 4.0 | 14.0 | 0.00 | 0.08 | 0.08 | 1021.3 | |
| 20260905174542 | 0 | 263 | 3.0 | 10.0 | 0.00 | 0.08 | 0.08 | 1021.0 | |
| 20260905173103 | 0 | 250 | 3.0 | 12.0 | 0.00 | 0.08 | 0.08 | 1020.8 | |
| 20260905171552 | 0 | 277 | 5.0 | 15.0 | 0.00 | 0.08 | 0.08 | 1020.8 | |
| 20260905170044 | 0 | 246 | 4.0 | 12.0 | 0.00 | 0.08 | 0.08 | 1020.8 | |
| 20260905164544 | 0 | 267 | 3.0 | 11.0 | 0.00 | 0.08 | 0.08 | 1020.7 | |
| 20260905163040 | 0 | 261 | 5.0 | 18.0 | 0.00 | 0.08 | 0.08 | 1020.7 | |
| 20260905161541 | 0 | 246 | 5.0 | 14.0 | 0.00 | 0.08 | 0.08 | 1020.6 | |
| 20260905160052 | 0 | 280 | 8.0 | 15.0 | 0.00 | 0.08 | 0.08 | 1020.6 | |
| 20260905154548 | 0 | 273 | 7.0 | 24.0 | 0.00 | 0.08 | 0.08 | 1020.6 | |
| 20260905153037 | 0 | 272 | 8.0 | 19.0 | 0.00 | 0.08 | 0.08 | 1020.6 | |
| 20260905151536 | 0 | 269 | 7.0 | 18.0 | 0.00 | 0.08 | 0.08 | 1020.6 | |
| 20260905150040 | 0 | 259 | 8.0 | 16.0 | 0.00 | 0.08 | 0.08 | 1020.5 | |
| 20260905144535 | 0 | 267 | 12.0 | 19.0 | 0.00 | 0.08 | 0.08 | 1020.4 | |
| 20260905143035 | 0 | 282 | 5.0 | 15.0 | 0.00 | 0.08 | 0.08 | 1020.5 | |
| 20260905141534 | 0 | 280 | 9.0 | 14.0 | 0.01 | 0.08 | 0.08 | 1020.7 | |
| 20260905140033 | 0 | 286 | 13.0 | 19.0 | 0.01 | 0.08 | 0.08 | 1020.9 | |
| 20260905134533 | 0 | 279 | 7.0 | 16.0 | 0.01 | 0.08 | 0.08 | 1020.7 | |
| 20260905133031 | 0 | 302 | 8.0 | 16.0 | 0.01 | 0.08 | 0.08 | 1020.7 | |
| 20260905131532 | 0 | 292 | 8.0 | 15.0 | 0.00 | 0.07 | 0.07 | 1020.7 | |
| 20260905130030 | 0 | 283 | 9.0 | 18.0 | 0.00 | 0.07 | 0.07 | 1020.8 | |
| 20260905124530 | 0 | 264 | 8.0 | 19.0 | 0.00 | 0.07 | 0.07 | 1021.0 | |
| 20260905123030 | 0 | 281 | 8.0 | 16.0 | 0.00 | 0.07 | 0.07 | 1021.1 | |
| 20260905121529 | 0 | 283 | 9.0 | 16.0 | 0.00 | 0.07 | 0.07 | 1021.3 | |
| 20260905120042 | 0 | 265 | 10.0 | 16.0 | 0.00 | 0.07 | 0.07 | 1021.4 | |
| 20260905114528 | 0 | 309 | 8.0 | 17.0 | 0.00 | 0.07 | 0.07 | 1021.4 | |
| 20260905113030 | 0 | 269 | 9.0 | 20.0 | 0.00 | 0.07 | 0.07 | 1021.3 | |
| 20260905111549 | 0 | 299 | 6.0 | 13.0 | 0.00 | 0.07 | 0.07 | 1021.4 | |
| 20260905110026 | 0 | 317 | 5.0 | 13.0 | 0.00 | 0.07 | 0.07 | 1021.4 | |
| 20260905104525 | 0 | 319 | 5.0 | 13.0 | 0.00 | 0.07 | 0.07 | 1021.2 | |
| 20260905103029 | 0 | 292 | 5.0 | 10.0 | 0.00 | 0.07 | 0.07 | 1021.4 | |
| 20260905101524 | 0 | 288 | 6.0 | 13.0 | 0.01 | 0.07 | 0.07 | 1021.5 | |
| 20260905100020 | 0 | 293 | 4.0 | 10.0 | 0.01 | 0.07 | 0.07 | 1021.5 | |
| 20260905094516 | 0 | 291 | 2.0 | 9.0 | 0.01 | 0.07 | 0.07 | 1021.6 | |
| 20260905093011 | 0 | 277 | 3.0 | 8.0 | 0.02 | 0.07 | 0.07 | 1021.7 | |
| 20260905091506 | 0 | 268 | 2.0 | 7.0 | 0.01 | 0.06 | 0.06 | 1021.6 | |
| 20260905090001 | 0 | 258 | 3.0 | 9.0 | 0.02 | 0.06 | 0.06 | 1021.6 | |
| 20260905084601 | 0 | 244 | 2.0 | 5.0 | 0.02 | 0.06 | 0.06 | 1021.6 | |
| 20260905083153 | 0 | 260 | 2.0 | 4.0 | 0.01 | 0.06 | 0.06 | 1021.9 | |
| 20260905081548 | 0 | 260 | 0.0 | 6.0 | 0.02 | 0.06 | 0.06 | 1021.7 | |
| 20260905080044 | 0 | 221 | 1.0 | 7.0 | 0.02 | 0.05 | 0.05 | 1021.5 | |
| 20260905074540 | 0 | 219 | 2.0 | 7.0 | 0.02 | 0.05 | 0.05 | 1021.5 | |
| 20260905073038 | 0 | 217 | 3.0 | 11.0 | 0.02 | 0.04 | 0.04 | 1021.4 | |
| 20260905071537 | 0 | 250 | 0.0 | 9.0 | 0.02 | 0.04 | 0.04 | 1021.3 | |
| 20260905070045 | 0 | 265 | 1.0 | 13.0 | 0.02 | 0.03 | 0.03 | 1021.4 | |
| 20260905064537 | 0 | 275 | 0.0 | 3.0 | 0.03 | 0.03 | 0.03 | 1020.8 | |
| 20260905063018 | 0 | 277 | 1.0 | 7.0 | 0.02 | 0.02 | 0.02 | 1021.1 | |
| 20260905061513 | 0 | 301 | 1.0 | 10.0 | 0.02 | 0.02 | 0.02 | 1021.0 | |
| 20260905060009 | 0 | 308 | 3.0 | 11.0 | 0.01 | 0.01 | 0.01 | 1020.7 | |
| 20260905054508 | 0 | 329 | 4.0 | 11.0 | 0.00 | 0.00 | 0.00 | 1019.6 | |
| 20260905053102 | 0 | 323 | 0.0 | 2.0 | 0.00 | 0.00 | 0.00 | 1018.9 | |
| 20260905051555 | 0 | 350 | 2.0 | 11.0 | 0.00 | 0.00 | 0.00 | 1018.3 | |
| 20260905050056 | 0 | 330 | 8.0 | 19.0 | 0.00 | 0.00 | 0.00 | 1018.4 | |
| 20260905044546 | 0 | 306 | 6.0 | 13.0 | 0.00 | 0.01 | 0.00 | 1017.2 | |
| 20260905043042 | 0 | 324 | 11.0 | 25.0 | 0.00 | 0.01 | 0.00 | 1016.8 | |
| 20260905041537 | 0 | 302 | 13.0 | 22.0 | 0.00 | 0.01 | 0.00 | 1016.5 | |
| 20260905040035 | 0 | 302 | 6.0 | 13.0 | 0.00 | 0.01 | 0.00 | 1015.8 | |
| 20260905034531 | 0 | 260 | 0.0 | 7.0 | 0.00 | 0.01 | 0.00 | 1015.2 | |
| 20260905033027 | 0 | 261 | 1.0 | 7.0 | 0.00 | 0.01 | 0.00 | 1015.2 | |
| 20260905031520 | 0 | 269 | 0.0 | 6.0 | 0.00 | 0.01 | 0.00 | 1015.2 | |
| 20260905030016 | 0 | 269 | 1.0 | 8.0 | 0.00 | 0.01 | 0.00 | 1015.0 | |
| 20260905024511 | 0 | 267 | 3.0 | 10.0 | 0.00 | 0.01 | 0.00 | 1014.9 | |
| 20260905023006 | 0 | 266 | 2.0 | 8.0 | 0.00 | 0.01 | 0.00 | 1014.8 | |
| 20260905021502 | 0 | 272 | 2.0 | 10.0 | 0.00 | 0.01 | 0.00 | 1014.6 | |
| 20260905014557 | 0 | 279 | 5.0 | 12.0 | 0.00 | 0.01 | 0.00 | 1014.4 | |
| 20260905013049 | 0 | 277 | 5.0 | 13.0 | 0.00 | 0.01 | 0.00 | 1014.4 | |
| 20260905011545 | 0 | 269 | 5.0 | 14.0 | 0.00 | 0.01 | 0.00 | 1014.4 | |
| 20260905010044 | 0 | 275 | 4.0 | 11.0 | 0.00 | 0.01 | 0.00 | 1014.2 | |
| 20260905004534 | 0 | 252 | 0.0 | 1.0 | 0.00 | 0.01 | 0.00 | 1014.1 | |
| 20260905003035 | 0 | 252 | 0.0 | 0.0 | 0.00 | 0.01 | 0.00 | 1013.9 |